createdAt,value
2024-05-09T00:01:31.958Z,83.09
2024-05-09T00:04:07.632Z,83.41
2024-05-09T00:06:42.876Z,83.34
2024-05-09T00:09:20.827Z,83.37
2024-05-09T00:11:56.121Z,83.07
2024-05-09T00:14:31.356Z,82.87
2024-05-09T00:17:07.006Z,82.79
2024-05-09T00:19:47.054Z,82.55
2024-05-09T00:22:24.602Z,82.79
2024-05-09T00:25:02.442Z,82.96
2024-05-09T00:27:42.475Z,83.16
2024-05-09T00:30:24.435Z,83.62
2024-05-09T00:33:09.420Z,83.85
2024-05-09T00:35:45.802Z,83.98
2024-05-09T00:38:21.134Z,83.92
2024-05-09T00:40:58.987Z,83.80
2024-05-09T00:43:34.315Z,83.60
2024-05-09T00:46:10.101Z,83.81
2024-05-09T00:48:45.614Z,83.52
2024-05-09T00:51:21.146Z,83.41
2024-05-09T00:53:56.493Z,83.17
2024-05-09T00:56:38.240Z,82.97
2024-05-09T00:59:13.890Z,83.13
2024-05-09T01:01:50.302Z,83.37
2024-05-09T01:04:25.673Z,83.69
2024-05-09T01:07:00.809Z,83.57
2024-05-09T01:09:36.055Z,83.69
2024-05-09T01:12:14.160Z,83.67
2024-05-09T01:14:49.673Z,83.53
2024-05-09T01:17:25.015Z,83.27
2024-05-09T01:20:00.349Z,83.58
2024-05-09T01:22:38.543Z,83.31
2024-05-09T01:25:16.467Z,82.97
2024-05-09T01:27:51.633Z,82.58
2024-05-09T01:30:33.801Z,82.15
2024-05-09T01:33:12.546Z,82.12
2024-05-09T01:35:48.339Z,82.47
2024-05-09T01:38:23.583Z,82.43
2024-05-09T01:41:01.640Z,82.15
2024-05-09T01:43:36.806Z,81.99
2024-05-09T01:46:19.501Z,82.21
2024-05-09T01:48:54.647Z,82.07
2024-05-09T01:51:29.953Z,82.35
2024-05-09T01:54:06.041Z,82.03
2024-05-09T01:56:43.776Z,82.33
2024-05-09T01:59:18.990Z,82.40
2024-05-09T02:01:56.999Z,82.54
2024-05-09T02:04:33.384Z,82.96
2024-05-09T02:07:08.644Z,82.89
2024-05-09T02:09:43.944Z,83.29
2024-05-09T02:12:21.815Z,82.96
2024-05-09T02:14:57.067Z,83.08
2024-05-09T02:17:32.513Z,82.99
2024-05-09T02:20:13.215Z,82.96
2024-05-09T02:22:51.353Z,83.30
2024-05-09T02:25:29.582Z,83.33
2024-05-09T02:28:10.292Z,83.34
2024-05-09T02:30:45.434Z,83.03
2024-05-09T02:33:20.746Z,83.28
2024-05-09T02:35:55.911Z,83.55
2024-05-09T02:38:28.602Z,83.15
2024-05-09T02:41:03.888Z,82.92
2024-05-09T02:43:39.131Z,83.16
2024-05-09T02:46:14.276Z,83.13
2024-05-09T02:48:46.862Z,82.81
2024-05-09T02:51:22.078Z,82.84
2024-05-09T02:53:54.674Z,83.17
2024-05-09T02:56:29.941Z,83.12
2024-05-09T02:59:05.246Z,83.29
2024-05-09T03:01:40.499Z,83.08
2024-05-09T03:04:13.081Z,82.82
2024-05-09T03:06:48.297Z,82.80
2024-05-09T03:09:21.614Z,83.13
2024-05-09T03:11:56.922Z,82.90
2024-05-09T03:14:32.243Z,82.93
2024-05-09T03:17:07.862Z,83.13
2024-05-09T03:19:40.460Z,83.05
2024-05-09T03:22:15.627Z,83.18
2024-05-09T03:24:48.061Z,83.36
2024-05-09T03:27:24.938Z,83.09
2024-05-09T03:30:00.093Z,82.81
2024-05-09T03:32:35.463Z,83.19
2024-05-09T03:35:08.150Z,83.03
2024-05-09T03:37:43.312Z,83.13
2024-05-09T03:40:23.652Z,82.76
2024-05-09T03:43:01.623Z,83.00
2024-05-09T03:45:39.395Z,82.99
2024-05-09T03:48:12.217Z,82.90
2024-05-09T03:50:48.001Z,82.93
2024-05-09T03:53:20.671Z,82.90
2024-05-09T03:55:56.990Z,83.21
2024-05-09T03:58:29.625Z,83.53
2024-05-09T04:01:10.164Z,83.44
2024-05-09T04:03:42.904Z,83.73
2024-05-09T04:06:23.719Z,83.79
2024-05-09T04:08:56.273Z,83.41
2024-05-09T04:11:31.622Z,83.70
2024-05-09T04:14:06.693Z,83.48
2024-05-09T04:16:44.660Z,83.30
2024-05-09T04:19:17.536Z,83.60
2024-05-09T04:21:53.029Z,83.35
2024-05-09T04:24:25.646Z,83.21
2024-05-09T04:27:00.831Z,82.94
2024-05-09T04:29:37.463Z,82.53
2024-05-09T04:32:15.406Z,82.67
2024-05-09T04:34:47.959Z,82.74
2024-05-09T04:37:23.223Z,82.78
2024-05-09T04:39:55.763Z,82.48
2024-05-09T04:42:30.928Z,82.14
2024-05-09T04:45:03.865Z,81.51
2024-05-09T04:47:41.959Z,81.79
2024-05-09T04:50:21.215Z,81.06
2024-05-09T04:53:05.123Z,80.13
2024-05-09T04:55:38.263Z,79.76
2024-05-09T04:58:14.259Z,80.28
2024-05-09T05:00:48.490Z,80.45
2024-05-09T05:03:26.524Z,80.58
2024-05-09T05:05:59.199Z,80.57
2024-05-09T05:08:34.644Z,80.32
2024-05-09T05:11:07.321Z,79.93
2024-05-09T05:13:42.502Z,79.82
2024-05-09T05:16:19.443Z,79.14
2024-05-09T05:18:54.815Z,78.42
2024-05-09T05:21:30.281Z,78.87
2024-05-09T05:24:02.856Z,79.16
2024-05-09T05:26:39.096Z,79.61
2024-05-09T05:29:11.743Z,80.30
2024-05-09T05:31:46.986Z,80.91
2024-05-09T05:34:22.337Z,82.12
2024-05-09T05:36:57.528Z,82.19
2024-05-09T05:39:30.133Z,82.21
2024-05-09T05:42:05.390Z,81.53
2024-05-09T05:44:38.828Z,81.00
2024-05-09T05:47:14.040Z,80.89
2024-05-09T05:49:49.359Z,81.33
2024-05-09T05:52:27.748Z,81.32
2024-05-09T05:55:00.353Z,81.92
2024-05-09T05:57:35.575Z,82.00
2024-05-09T06:00:09.833Z,81.77
2024-05-09T06:02:48.910Z,81.90
2024-05-09T06:05:26.043Z,81.71
2024-05-09T06:08:02.830Z,80.69
2024-05-09T06:10:39.199Z,80.74
2024-05-09T06:13:18.484Z,80.76
2024-05-09T06:15:50.912Z,79.39
2024-05-09T06:18:26.319Z,80.21
2024-05-09T06:21:01.872Z,80.60
2024-05-09T06:23:37.172Z,80.40
2024-05-09T06:26:10.364Z,80.72
2024-05-09T06:28:45.633Z,79.58
2024-05-09T06:31:18.182Z,80.25
2024-05-09T06:33:53.741Z,79.78
2024-05-09T06:36:31.281Z,78.74
2024-05-09T06:39:06.753Z,79.20
2024-05-09T06:41:41.648Z,79.76
2024-05-09T06:44:17.044Z,78.71
2024-05-09T06:46:49.759Z,78.22
2024-05-09T06:49:29.100Z,77.76
2024-05-09T06:52:04.942Z,75.95
2024-05-09T06:54:40.294Z,76.33
2024-05-09T06:57:12.994Z,75.88
2024-05-09T06:59:51.271Z,74.65
2024-05-09T07:02:23.847Z,75.14
2024-05-09T07:04:59.224Z,75.23
2024-05-09T07:07:34.446Z,74.22
2024-05-09T07:10:14.852Z,75.18
2024-05-09T07:12:50.910Z,73.78
2024-05-09T07:15:26.057Z,72.32
2024-05-09T07:17:58.753Z,71.44
2024-05-09T07:20:36.472Z,71.12
2024-05-09T07:23:12.925Z,69.01
2024-05-09T07:25:48.515Z,67.63
2024-05-09T07:28:21.676Z,67.62
2024-05-09T07:30:56.859Z,66.76
2024-05-09T07:33:29.473Z,67.02
2024-05-09T07:36:04.758Z,66.89
2024-05-09T07:38:39.936Z,67.07
2024-05-09T07:41:15.241Z,67.78
2024-05-09T07:43:48.852Z,66.43
2024-05-09T07:47:17.267Z,64.72
2024-05-09T07:50:55.810Z,65.10
2024-05-09T07:53:29.717Z,64.44
2024-05-09T07:55:09.100Z,63.50
2024-05-09T07:57:44.318Z,63.05
2024-05-09T08:00:23.520Z,62.06
2024-05-09T08:03:02.267Z,62.32
2024-05-09T08:05:34.938Z,63.14
2024-05-09T08:08:11.414Z,62.30
2024-05-09T08:10:46.719Z,62.08
2024-05-09T08:13:22.180Z,62.11
2024-05-09T08:15:54.807Z,61.50
2024-05-09T08:18:30.288Z,60.34
2024-05-09T08:21:02.958Z,60.53
2024-05-09T08:23:40.343Z,60.19
2024-05-09T08:26:18.098Z,60.11
2024-05-09T08:28:50.603Z,61.77
2024-05-09T08:31:25.947Z,62.48
2024-05-09T08:33:58.869Z,62.41
2024-05-09T08:36:34.542Z,63.82
2024-05-09T08:39:07.096Z,62.17
2024-05-09T08:41:46.068Z,61.54
2024-05-09T08:44:19.308Z,61.21
2024-05-09T08:46:54.795Z,58.17
2024-05-09T08:49:27.411Z,59.76
2024-05-09T08:52:02.700Z,54.73
2024-05-09T08:54:35.695Z,54.60
2024-05-09T08:57:16.310Z,56.38
2024-05-09T08:59:50.989Z,56.63
2024-05-09T09:02:27.157Z,59.19
2024-05-09T09:05:06.297Z,60.19
2024-05-09T09:07:42.516Z,59.27
2024-05-09T09:10:24.900Z,59.35
2024-05-09T09:13:09.926Z,58.25
2024-05-09T09:15:50.051Z,58.31
2024-05-09T09:18:29.344Z,57.10
2024-05-09T09:21:02.959Z,59.14
2024-05-09T09:23:38.287Z,59.45
2024-05-09T09:26:16.152Z,59.06
2024-05-09T09:28:54.835Z,59.37
2024-05-09T09:31:27.462Z,58.46
2024-05-09T09:34:10.041Z,57.90
2024-05-09T09:36:44.435Z,58.43
2024-05-09T09:39:23.269Z,58.34
2024-05-09T09:41:58.983Z,58.45
2024-05-09T09:44:39.575Z,59.96
2024-05-09T09:47:17.766Z,60.88
2024-05-09T09:49:53.913Z,59.89
2024-05-09T09:52:28.296Z,59.64
2024-05-09T09:55:04.834Z,58.82
2024-05-09T09:57:40.428Z,57.29
2024-05-09T10:00:24.622Z,56.97
2024-05-09T10:03:02.985Z,56.43
2024-05-09T10:05:44.003Z,56.14
2024-05-09T10:08:22.173Z,56.19
2024-05-09T10:10:55.708Z,55.81
2024-05-09T10:13:36.555Z,54.79
2024-05-09T10:16:12.476Z,53.95
2024-05-09T10:18:47.832Z,55.78
2024-05-09T10:21:21.465Z,57.97
2024-05-09T10:24:01.532Z,59.24
2024-05-09T10:26:36.006Z,57.00
2024-05-09T10:29:15.684Z,55.70
2024-05-09T10:31:50.903Z,54.97
2024-05-09T10:34:26.903Z,56.11
2024-05-09T10:37:02.771Z,56.63
2024-05-09T10:39:42.819Z,57.16
2024-05-09T10:42:19.913Z,56.28
2024-05-09T10:44:55.427Z,56.92
2024-05-09T10:47:30.673Z,54.36
2024-05-09T10:50:15.672Z,54.70
2024-05-09T10:52:54.852Z,53.03
2024-05-09T10:55:30.993Z,49.44
2024-05-09T10:58:16.008Z,48.64
2024-05-09T11:00:52.358Z,47.05
2024-05-09T11:03:28.178Z,46.47
2024-05-09T11:06:04.095Z,45.03
2024-05-09T11:08:37.288Z,45.18
2024-05-09T11:11:13.737Z,46.58
2024-05-09T11:13:46.228Z,47.35
2024-05-09T11:16:22.689Z,46.10
2024-05-09T11:18:59.035Z,45.53
2024-05-09T11:21:34.962Z,47.37
2024-05-09T11:24:11.012Z,46.58
2024-05-09T11:26:46.691Z,45.02
2024-05-09T11:29:19.838Z,45.22
2024-05-09T11:32:00.278Z,45.74
2024-05-09T11:34:35.730Z,46.27
2024-05-09T11:37:13.407Z,44.48
2024-05-09T11:39:46.049Z,43.14
2024-05-09T11:42:22.525Z,42.29
2024-05-09T11:44:54.997Z,45.71
2024-05-09T11:47:30.625Z,45.30
2024-05-09T11:50:08.225Z,44.61
2024-05-09T11:52:45.410Z,42.82
2024-05-09T11:55:18.874Z,43.34
2024-05-09T11:57:54.396Z,42.18
2024-05-09T12:00:34.106Z,40.82
2024-05-09T12:03:12.396Z,39.67
2024-05-09T12:05:47.651Z,40.35
2024-05-09T12:08:23.105Z,41.63
2024-05-09T12:10:56.039Z,42.93
2024-05-09T12:13:33.910Z,42.62
2024-05-09T12:16:07.119Z,41.09
2024-05-09T12:18:42.463Z,41.86
2024-05-09T12:21:17.676Z,39.82
2024-05-09T12:23:52.865Z,39.76
2024-05-09T12:26:25.631Z,40.79
2024-05-09T12:29:00.823Z,40.78
2024-05-09T12:31:33.542Z,40.73
2024-05-09T12:34:08.824Z,42.96
2024-05-09T12:36:44.173Z,44.64
2024-05-09T12:39:19.432Z,43.59
2024-05-09T12:41:52.178Z,42.76
2024-05-09T12:44:27.323Z,41.75
2024-05-09T12:47:00.074Z,40.39
2024-05-09T12:49:35.602Z,42.33
2024-05-09T12:52:10.909Z,41.73
2024-05-09T12:54:46.264Z,42.78
2024-05-09T12:57:18.870Z,41.29
2024-05-09T12:59:54.204Z,40.99
2024-05-09T13:02:26.788Z,40.01
2024-05-09T13:05:02.236Z,38.41
2024-05-09T13:07:38.647Z,39.54
2024-05-09T13:10:19.815Z,41.85
2024-05-09T13:12:55.658Z,41.53
2024-05-09T13:15:31.580Z,44.20
2024-05-09T13:18:05.257Z,46.37
2024-05-09T13:20:40.599Z,46.18
2024-05-09T13:23:15.758Z,45.90
2024-05-09T13:25:50.962Z,45.31
2024-05-09T13:28:23.636Z,47.52
2024-05-09T13:30:58.964Z,47.42
2024-05-09T13:33:33.454Z,46.15
2024-05-09T13:36:09.999Z,44.91
2024-05-09T13:38:45.247Z,41.43
2024-05-09T13:41:20.438Z,41.20
2024-05-09T13:43:53.694Z,39.83
2024-05-09T13:46:28.954Z,42.13
2024-05-09T13:49:03.322Z,40.46
2024-05-09T13:51:38.553Z,40.75
2024-05-09T13:54:14.059Z,40.50
2024-05-09T13:56:49.184Z,38.77
2024-05-09T13:59:21.658Z,38.61
2024-05-09T14:01:59.451Z,37.95
2024-05-09T14:04:32.486Z,38.39
2024-05-09T14:07:10.223Z,38.17
2024-05-09T14:09:47.210Z,37.35
2024-05-09T14:12:22.415Z,38.50
2024-05-09T14:14:56.551Z,39.06
2024-05-09T14:17:31.943Z,38.73
2024-05-09T14:20:06.260Z,38.07
2024-05-09T14:22:43.347Z,38.49
2024-05-09T14:25:18.753Z,39.55
2024-05-09T14:27:54.320Z,39.28
2024-05-09T14:30:34.821Z,39.11
2024-05-09T14:33:16.434Z,39.66
2024-05-09T14:35:49.205Z,40.81
2024-05-09T14:38:24.490Z,41.59
2024-05-09T14:40:59.607Z,41.38
2024-05-09T14:43:34.892Z,39.63
2024-05-09T14:46:07.608Z,39.61
2024-05-09T14:48:43.207Z,39.13
2024-05-09T14:51:16.564Z,39.37
2024-05-09T14:53:51.757Z,40.62
2024-05-09T14:56:26.894Z,40.79
2024-05-09T14:59:02.135Z,40.32
2024-05-09T15:01:37.663Z,39.85
2024-05-09T15:04:12.894Z,40.13
2024-05-09T15:06:45.859Z,41.59
2024-05-09T15:09:21.160Z,42.00
2024-05-09T15:11:56.554Z,41.14
2024-05-09T15:14:33.932Z,42.82
2024-05-09T15:17:06.513Z,42.14
2024-05-09T15:19:41.851Z,43.12
2024-05-09T15:22:16.491Z,43.52
2024-05-09T15:24:53.878Z,43.89
2024-05-09T15:27:29.072Z,44.04
2024-05-09T15:30:06.936Z,44.52
2024-05-09T15:32:42.826Z,44.42
2024-05-09T15:35:18.071Z,45.09
2024-05-09T15:37:50.751Z,45.37
2024-05-09T15:40:35.914Z,44.89
2024-05-09T15:43:15.000Z,46.02
2024-05-09T15:45:50.328Z,46.11
2024-05-09T15:48:23.149Z,45.90
2024-05-09T15:50:58.510Z,46.08
2024-05-09T15:53:31.092Z,47.45
2024-05-09T15:56:06.401Z,47.43
2024-05-09T15:58:41.690Z,48.29
2024-05-09T16:01:17.000Z,48.61
2024-05-09T16:03:50.073Z,48.74
2024-05-09T16:06:26.141Z,48.78
2024-05-09T16:08:58.813Z,49.10
2024-05-09T16:11:33.992Z,49.33
2024-05-09T16:14:09.258Z,49.22
2024-05-09T16:16:44.889Z,50.11
2024-05-09T16:19:17.516Z,49.44
2024-05-09T16:21:52.731Z,50.57
2024-05-09T16:24:25.230Z,50.44
2024-05-09T16:27:00.933Z,50.95
2024-05-09T16:29:36.406Z,50.66
2024-05-09T16:32:11.615Z,50.15
2024-05-09T16:34:44.114Z,50.66
2024-05-09T16:37:19.404Z,50.48
2024-05-09T16:39:51.971Z,51.25
2024-05-09T16:42:27.177Z,51.12
2024-05-09T16:45:05.112Z,51.44
2024-05-09T16:47:41.177Z,52.38
2024-05-09T16:50:19.230Z,52.42
2024-05-09T16:53:00.114Z,52.53
2024-05-09T16:55:32.987Z,53.29
2024-05-09T16:58:12.640Z,52.69
2024-05-09T17:00:48.177Z,53.46
2024-05-09T17:03:25.058Z,53.52
2024-05-09T17:05:57.993Z,52.23
2024-05-09T17:08:33.247Z,52.76
2024-05-09T17:11:05.817Z,52.43
2024-05-09T17:13:41.173Z,52.22
2024-05-09T17:16:20.924Z,52.05
2024-05-09T17:18:56.278Z,52.63
2024-05-09T17:21:28.810Z,52.76
2024-05-09T17:24:03.932Z,52.91
2024-05-09T17:26:37.155Z,53.21
2024-05-09T17:29:13.037Z,53.05
2024-05-09T17:31:48.161Z,52.77
2024-05-09T17:34:23.384Z,53.12
2024-05-09T17:36:56.221Z,52.65
2024-05-09T17:39:31.404Z,52.93
2024-05-09T17:42:04.275Z,53.56
2024-05-09T17:44:39.411Z,53.38
2024-05-09T17:47:14.773Z,52.16
2024-05-09T17:49:50.038Z,53.17
2024-05-09T17:52:22.667Z,53.07
2024-05-09T17:54:58.499Z,53.26
2024-05-09T17:57:32.075Z,53.68
2024-05-09T18:00:11.525Z,54.00
2024-05-09T18:02:52.376Z,53.50
2024-05-09T18:05:29.078Z,53.96
2024-05-09T18:08:01.708Z,54.10
2024-05-09T18:10:39.759Z,54.95
2024-05-09T18:13:14.983Z,54.45
2024-05-09T18:15:50.383Z,54.91
2024-05-09T18:18:25.684Z,55.90
2024-05-09T18:21:00.931Z,55.69
2024-05-09T18:23:33.877Z,55.70
2024-05-09T18:26:09.141Z,55.21
2024-05-09T18:28:41.711Z,55.73
2024-05-09T18:31:18.229Z,55.55
2024-05-09T18:33:53.505Z,56.29
2024-05-09T18:36:29.617Z,56.47
2024-05-09T18:39:03.203Z,56.67
2024-05-09T18:41:38.303Z,56.91
2024-05-09T18:44:10.822Z,58.44
2024-05-09T18:46:48.256Z,58.30
2024-05-09T18:49:23.700Z,58.30
2024-05-09T18:52:02.037Z,58.71
2024-05-09T18:54:34.612Z,58.78
2024-05-09T18:57:09.919Z,60.08
2024-05-09T18:59:42.508Z,60.42
2024-05-09T19:02:18.149Z,60.71
2024-05-09T19:04:53.586Z,61.66
2024-05-09T19:07:28.852Z,62.60
2024-05-09T19:10:01.471Z,62.94
2024-05-09T19:12:36.685Z,63.45
2024-05-09T19:15:09.322Z,64.00
2024-05-09T19:17:44.863Z,64.59
2024-05-09T19:20:28.166Z,64.82
2024-05-09T19:23:07.921Z,65.34
2024-05-09T19:25:40.683Z,65.82
2024-05-09T19:28:15.932Z,66.07
2024-05-09T19:30:48.627Z,66.34
2024-05-09T19:33:23.973Z,66.67
2024-05-09T19:35:59.138Z,66.75
2024-05-09T19:38:34.754Z,67.05
2024-05-09T19:41:07.271Z,67.13
2024-05-09T19:43:42.725Z,67.40
2024-05-09T19:46:15.545Z,67.37
2024-05-09T19:48:51.049Z,67.64
2024-05-09T19:51:26.269Z,67.83
2024-05-09T19:54:01.372Z,68.22
2024-05-09T19:56:34.152Z,69.46
2024-05-09T19:59:09.515Z,68.68
2024-05-09T20:01:42.377Z,69.21
2024-05-09T20:04:17.808Z,69.23
2024-05-09T20:06:53.399Z,69.48
2024-05-09T20:09:28.510Z,70.89
2024-05-09T20:12:01.111Z,70.23
2024-05-09T20:14:36.261Z,70.67
2024-05-09T20:17:08.834Z,70.65
2024-05-09T20:19:46.081Z,70.81
2024-05-09T20:22:21.367Z,70.52
2024-05-09T20:24:56.771Z,71.51
2024-05-09T20:27:29.385Z,71.82
2024-05-09T20:30:09.732Z,72.63
2024-05-09T20:32:44.688Z,72.96
2024-05-09T20:35:19.832Z,73.24
2024-05-09T20:37:57.362Z,73.47
2024-05-09T20:40:37.146Z,74.09
2024-05-09T20:43:11.963Z,74.19
2024-05-09T20:45:47.510Z,74.54
2024-05-09T20:48:20.191Z,75.01
2024-05-09T20:50:55.438Z,75.08
2024-05-09T20:53:30.610Z,75.19
2024-05-09T20:56:05.793Z,75.62
2024-05-09T20:58:38.418Z,75.64
2024-05-09T21:01:15.845Z,75.57
2024-05-09T21:03:48.930Z,75.97
2024-05-09T21:06:24.318Z,76.10
2024-05-09T21:08:59.527Z,76.20
2024-05-09T21:11:34.902Z,76.47
2024-05-09T21:14:07.536Z,76.73
2024-05-09T21:16:42.716Z,77.31
2024-05-09T21:19:15.493Z,76.96
2024-05-09T21:21:51.902Z,77.07
2024-05-09T21:24:28.202Z,76.84
2024-05-09T21:27:03.329Z,76.93
2024-05-09T21:29:35.852Z,77.27
2024-05-09T21:32:11.478Z,77.22
2024-05-09T21:34:44.057Z,77.19
2024-05-09T21:37:19.332Z,77.31
2024-05-09T21:39:54.648Z,77.32
2024-05-09T21:42:29.825Z,77.54
2024-05-09T21:45:02.349Z,77.78
2024-05-09T21:47:37.774Z,78.04
2024-05-09T21:50:18.642Z,77.74
2024-05-09T21:52:58.477Z,77.95
2024-05-09T21:55:33.647Z,78.29
2024-05-09T21:58:08.818Z,78.65
2024-05-09T22:00:43.584Z,78.89
2024-05-09T22:03:18.906Z,78.73
2024-05-09T22:05:51.549Z,78.92
2024-05-09T22:08:26.724Z,79.01
2024-05-09T22:11:02.080Z,78.99
2024-05-09T22:13:37.331Z,79.23
2024-05-09T22:16:09.940Z,79.06
2024-05-09T22:18:45.326Z,79.37
2024-05-09T22:21:17.872Z,79.52
2024-05-09T22:23:53.184Z,79.20
2024-05-09T22:26:28.314Z,79.10
2024-05-09T22:29:03.488Z,79.52
2024-05-09T22:31:36.128Z,79.66
2024-05-09T22:34:11.402Z,79.99
2024-05-09T22:36:46.077Z,80.29
2024-05-09T22:39:23.247Z,80.59
2024-05-09T22:41:58.397Z,80.60
2024-05-09T22:44:34.079Z,80.43
2024-05-09T22:47:06.707Z,80.65
2024-05-09T22:49:41.914Z,80.58
2024-05-09T22:52:14.555Z,80.67
2024-05-09T22:54:49.776Z,80.85
2024-05-09T22:57:25.029Z,80.73
2024-05-09T23:00:00.270Z,80.81
2024-05-09T23:02:32.750Z,80.67
2024-05-09T23:05:08.516Z,80.68
2024-05-09T23:07:41.103Z,80.70
2024-05-09T23:10:21.480Z,80.54
2024-05-09T23:13:03.888Z,81.00
2024-05-09T23:15:40.187Z,80.74
2024-05-09T23:18:12.956Z,81.05
2024-05-09T23:20:48.268Z,81.11
2024-05-09T23:23:21.257Z,81.40
2024-05-09T23:25:56.409Z,80.97
2024-05-09T23:28:31.942Z,80.72
2024-05-09T23:31:07.933Z,80.79
2024-05-09T23:33:45.690Z,81.41
2024-05-09T23:36:21.000Z,81.75
2024-05-09T23:38:53.539Z,82.08
2024-05-09T23:41:29.041Z,82.34
2024-05-09T23:44:04.474Z,82.54
2024-05-09T23:46:39.844Z,82.17
2024-05-09T23:49:12.456Z,82.09
2024-05-09T23:51:47.749Z,82.37
2024-05-09T23:54:20.360Z,82.22
2024-05-09T23:56:55.628Z,81.97
2024-05-09T23:59:31.869Z,81.37
